sensor_id;sensor_type;location;lat;lon;timestamp;P1;durP1;ratioP1;P2;durP2;ratioP2
78591;SDS011;67889;48.352;11.392;2023-02-28T00:00:38;4.43;;;1.90;;
78591;SDS011;67889;48.352;11.392;2023-02-28T00:03:04;2.40;;;1.90;;
78591;SDS011;67889;48.352;11.392;2023-02-28T00:05:30;2.40;;;1.20;;
78591;SDS011;67889;48.352;11.392;2023-02-28T00:07:55;2.58;;;1.48;;
78591;SDS011;67889;48.352;11.392;2023-02-28T00:10:24;2.33;;;2.00;;
78591;SDS011;67889;48.352;11.392;2023-02-28T00:12:51;1.30;;;1.23;;
78591;SDS011;67889;48.352;11.392;2023-02-28T00:15:18;1.40;;;1.30;;
78591;SDS011;67889;48.352;11.392;2023-02-28T00:17:44;2.28;;;1.25;;
78591;SDS011;67889;48.352;11.392;2023-02-28T00:20:10;3.72;;;1.23;;
78591;SDS011;67889;48.352;11.392;2023-02-28T00:22:44;2.10;;;1.25;;
78591;SDS011;67889;48.352;11.392;2023-02-28T00:25:11;1.58;;;1.48;;
78591;SDS011;67889;48.352;11.392;2023-02-28T00:27:39;1.80;;;1.15;;
78591;SDS011;67889;48.352;11.392;2023-02-28T00:30:06;1.13;;;1.02;;
78591;SDS011;67889;48.352;11.392;2023-02-28T00:32:34;2.17;;;1.85;;
78591;SDS011;67889;48.352;11.392;2023-02-28T00:35:00;1.70;;;1.40;;
78591;SDS011;67889;48.352;11.392;2023-02-28T00:37:25;3.53;;;1.88;;
78591;SDS011;67889;48.352;11.392;2023-02-28T00:39:51;1.45;;;1.33;;
78591;SDS011;67889;48.352;11.392;2023-02-28T00:42:16;5.87;;;1.03;;
78591;SDS011;67889;48.352;11.392;2023-02-28T00:44:41;1.03;;;0.90;;
78591;SDS011;67889;48.352;11.392;2023-02-28T00:47:07;2.73;;;1.17;;
78591;SDS011;67889;48.352;11.392;2023-02-28T00:49:32;0.80;;;0.80;;
78591;SDS011;67889;48.352;11.392;2023-02-28T00:51:58;1.67;;;1.15;;
78591;SDS011;67889;48.352;11.392;2023-02-28T00:54:23;2.10;;;1.03;;
78591;SDS011;67889;48.352;11.392;2023-02-28T00:56:49;0.90;;;0.77;;
78591;SDS011;67889;48.352;11.392;2023-02-28T00:59:15;1.50;;;1.40;;
78591;SDS011;67889;48.352;11.392;2023-02-28T01:01:42;1.33;;;1.23;;
78591;SDS011;67889;48.352;11.392;2023-02-28T01:04:08;2.75;;;1.60;;
78591;SDS011;67889;48.352;11.392;2023-02-28T01:06:34;3.13;;;1.88;;
78591;SDS011;67889;48.352;11.392;2023-02-28T01:09:00;1.13;;;0.77;;
78591;SDS011;67889;48.352;11.392;2023-02-28T01:11:26;1.57;;;1.27;;
78591;SDS011;67889;48.352;11.392;2023-02-28T01:13:51;5.17;;;2.00;;
78591;SDS011;67889;48.352;11.392;2023-02-28T01:16:17;2.40;;;1.58;;
78591;SDS011;67889;48.352;11.392;2023-02-28T01:18:42;2.72;;;1.42;;
78591;SDS011;67889;48.352;11.392;2023-02-28T01:21:10;3.47;;;1.65;;
78591;SDS011;67889;48.352;11.392;2023-02-28T01:23:38;2.05;;;1.60;;
78591;SDS011;67889;48.352;11.392;2023-02-28T01:26:08;2.83;;;1.60;;
78591;SDS011;67889;48.352;11.392;2023-02-28T01:28:36;1.55;;;1.45;;
78591;SDS011;67889;48.352;11.392;2023-02-28T01:31:02;2.63;;;1.00;;
78591;SDS011;67889;48.352;11.392;2023-02-28T01:33:27;1.73;;;1.60;;
78591;SDS011;67889;48.352;11.392;2023-02-28T01:36:03;1.35;;;1.25;;
78591;SDS011;67889;48.352;11.392;2023-02-28T01:38:36;2.35;;;0.93;;
78591;SDS011;67889;48.352;11.392;2023-02-28T01:41:02;1.25;;;1.15;;
78591;SDS011;67889;48.352;11.392;2023-02-28T01:46:28;1.40;;;1.13;;
78591;SDS011;67889;48.352;11.392;2023-02-28T01:48:58;2.38;;;1.67;;
78591;SDS011;67889;48.352;11.392;2023-02-28T01:51:38;2.13;;;1.25;;
78591;SDS011;67889;48.352;11.392;2023-02-28T01:54:08;2.38;;;2.03;;
78591;SDS011;67889;48.352;11.392;2023-02-28T01:56:39;2.33;;;1.15;;
78591;SDS011;67889;48.352;11.392;2023-02-28T01:59:08;0.85;;;0.80;;
78591;SDS011;67889;48.352;11.392;2023-02-28T02:01:35;1.58;;;1.45;;
78591;SDS011;67889;48.352;11.392;2023-02-28T02:04:01;2.87;;;1.67;;
78591;SDS011;67889;48.352;11.392;2023-02-28T02:06:29;2.67;;;1.85;;
78591;SDS011;67889;48.352;11.392;2023-02-28T02:08:59;2.83;;;1.80;;
78591;SDS011;67889;48.352;11.392;2023-02-28T02:11:24;3.33;;;1.58;;
78591;SDS011;67889;48.352;11.392;2023-02-28T02:25:42;2.08;;;1.52;;
78591;SDS011;67889;48.352;11.392;2023-02-28T02:42:14;2.42;;;1.80;;
78591;SDS011;67889;48.352;11.392;2023-02-28T02:44:47;2.95;;;1.67;;
78591;SDS011;67889;48.352;11.392;2023-02-28T02:47:29;3.78;;;2.45;;
78591;SDS011;67889;48.352;11.392;2023-02-28T02:49:57;4.85;;;2.45;;
78591;SDS011;67889;48.352;11.392;2023-02-28T02:52:33;1.85;;;1.58;;
78591;SDS011;67889;48.352;11.392;2023-02-28T02:55:03;3.47;;;1.60;;
78591;SDS011;67889;48.352;11.392;2023-02-28T02:58:05;3.08;;;1.80;;
78591;SDS011;67889;48.352;11.392;2023-02-28T03:00:26;4.18;;;2.03;;
78591;SDS011;67889;48.352;11.392;2023-02-28T03:02:57;1.60;;;1.23;;
78591;SDS011;67889;48.352;11.392;2023-02-28T03:05:23;1.58;;;1.48;;
78591;SDS011;67889;48.352;11.392;2023-02-28T03:07:51;2.30;;;1.98;;
78591;SDS011;67889;48.352;11.392;2023-02-28T03:13:41;2.30;;;1.48;;
78591;SDS011;67889;48.352;11.392;2023-02-28T03:16:32;1.55;;;1.45;;
78591;SDS011;67889;48.352;11.392;2023-02-28T03:21:38;1.50;;;1.40;;
78591;SDS011;67889;48.352;11.392;2023-02-28T03:24:14;6.22;;;2.28;;
78591;SDS011;67889;48.352;11.392;2023-02-28T03:26:57;3.03;;;1.80;;
78591;SDS011;67889;48.352;11.392;2023-02-28T03:32:37;3.75;;;1.95;;
78591;SDS011;67889;48.352;11.392;2023-02-28T03:35:11;3.05;;;1.92;;
78591;SDS011;67889;48.352;11.392;2023-02-28T03:37:46;3.90;;;2.58;;
78591;SDS011;67889;48.352;11.392;2023-02-28T03:40:15;1.40;;;0.95;;
78591;SDS011;67889;48.352;11.392;2023-02-28T03:42:47;1.52;;;1.33;;
78591;SDS011;67889;48.352;11.392;2023-02-28T03:45:25;4.88;;;2.75;;
78591;SDS011;67889;48.352;11.392;2023-02-28T03:47:55;4.30;;;2.00;;
78591;SDS011;67889;48.352;11.392;2023-02-28T03:53:08;2.95;;;1.98;;
78591;SDS011;67889;48.352;11.392;2023-02-28T03:55:48;2.88;;;1.95;;
78591;SDS011;67889;48.352;11.392;2023-02-28T04:00:55;3.80;;;2.25;;
78591;SDS011;67889;48.352;11.392;2023-02-28T04:03:33;2.38;;;2.00;;
78591;SDS011;67889;48.352;11.392;2023-02-28T04:06:03;5.03;;;2.30;;
78591;SDS011;67889;48.352;11.392;2023-02-28T04:08:30;3.30;;;2.72;;
78591;SDS011;67889;48.352;11.392;2023-02-28T04:11:00;4.00;;;2.30;;
78591;SDS011;67889;48.352;11.392;2023-02-28T04:13:29;2.65;;;2.17;;
78591;SDS011;67889;48.352;11.392;2023-02-28T04:15:54;4.30;;;2.63;;
78591;SDS011;67889;48.352;11.392;2023-02-28T04:18:20;5.90;;;2.97;;
78591;SDS011;67889;48.352;11.392;2023-02-28T04:20:45;3.40;;;2.30;;
78591;SDS011;67889;48.352;11.392;2023-02-28T04:23:10;3.77;;;2.50;;
78591;SDS011;67889;48.352;11.392;2023-02-28T04:25:35;2.73;;;2.27;;
78591;SDS011;67889;48.352;11.392;2023-02-28T04:28:01;5.30;;;2.47;;
78591;SDS011;67889;48.352;11.392;2023-02-28T04:30:26;6.00;;;2.57;;
78591;SDS011;67889;48.352;11.392;2023-02-28T04:32:51;6.10;;;3.23;;
78591;SDS011;67889;48.352;11.392;2023-02-28T04:35:16;5.60;;;2.70;;
78591;SDS011;67889;48.352;11.392;2023-02-28T04:37:42;2.47;;;2.03;;
78591;SDS011;67889;48.352;11.392;2023-02-28T04:40:07;4.27;;;2.47;;
78591;SDS011;67889;48.352;11.392;2023-02-28T04:42:33;2.80;;;2.30;;
78591;SDS011;67889;48.352;11.392;2023-02-28T04:45:01;3.72;;;2.47;;
78591;SDS011;67889;48.352;11.392;2023-02-28T04:47:27;3.85;;;2.83;;
78591;SDS011;67889;48.352;11.392;2023-02-28T04:49:53;5.40;;;3.17;;
78591;SDS011;67889;48.352;11.392;2023-02-28T04:52:18;4.40;;;2.87;;
78591;SDS011;67889;48.352;11.392;2023-02-28T04:54:43;7.87;;;2.87;;
78591;SDS011;67889;48.352;11.392;2023-02-28T04:57:08;4.30;;;2.53;;
78591;SDS011;67889;48.352;11.392;2023-02-28T04:59:34;6.83;;;3.47;;
78591;SDS011;67889;48.352;11.392;2023-02-28T05:01:59;3.63;;;1.83;;
78591;SDS011;67889;48.352;11.392;2023-02-28T05:04:24;7.63;;;3.43;;
78591;SDS011;67889;48.352;11.392;2023-02-28T05:06:50;3.73;;;2.70;;
78591;SDS011;67889;48.352;11.392;2023-02-28T05:09:15;3.57;;;3.07;;
78591;SDS011;67889;48.352;11.392;2023-02-28T05:11:40;5.63;;;3.07;;
78591;SDS011;67889;48.352;11.392;2023-02-28T05:14:08;13.85;;;3.55;;
78591;SDS011;67889;48.352;11.392;2023-02-28T05:16:36;4.20;;;2.92;;
78591;SDS011;67889;48.352;11.392;2023-02-28T05:19:02;4.57;;;2.65;;
78591;SDS011;67889;48.352;11.392;2023-02-28T05:21:31;6.18;;;3.22;;
78591;SDS011;67889;48.352;11.392;2023-02-28T05:24:13;4.13;;;2.28;;
78591;SDS011;67889;48.352;11.392;2023-02-28T05:26:40;3.97;;;3.50;;
78591;SDS011;67889;48.352;11.392;2023-02-28T05:29:06;8.02;;;3.55;;
78591;SDS011;67889;48.352;11.392;2023-02-28T05:31:32;7.28;;;3.13;;
78591;SDS011;67889;48.352;11.392;2023-02-28T05:33:57;5.95;;;3.30;;
78591;SDS011;67889;48.352;11.392;2023-02-28T05:36:23;4.87;;;2.90;;
78591;SDS011;67889;48.352;11.392;2023-02-28T05:38:49;5.47;;;2.78;;
78591;SDS011;67889;48.352;11.392;2023-02-28T05:41:15;4.70;;;2.40;;
78591;SDS011;67889;48.352;11.392;2023-02-28T05:43:42;8.05;;;3.00;;
78591;SDS011;67889;48.352;11.392;2023-02-28T05:46:08;6.53;;;3.40;;
78591;SDS011;67889;48.352;11.392;2023-02-28T05:48:36;3.40;;;2.42;;
78591;SDS011;67889;48.352;11.392;2023-02-28T05:51:03;3.83;;;2.97;;
78591;SDS011;67889;48.352;11.392;2023-02-28T05:53:33;9.80;;;3.33;;
78591;SDS011;67889;48.352;11.392;2023-02-28T05:55:58;6.55;;;3.15;;
78591;SDS011;67889;48.352;11.392;2023-02-28T05:58:24;3.47;;;2.80;;
78591;SDS011;67889;48.352;11.392;2023-02-28T06:00:54;4.30;;;2.80;;
78591;SDS011;67889;48.352;11.392;2023-02-28T06:03:19;5.00;;;3.20;;
78591;SDS011;67889;48.352;11.392;2023-02-28T06:05:44;4.70;;;3.47;;
78591;SDS011;67889;48.352;11.392;2023-02-28T06:08:10;5.73;;;3.23;;
78591;SDS011;67889;48.352;11.392;2023-02-28T06:10:35;4.63;;;2.95;;
78591;SDS011;67889;48.352;11.392;2023-02-28T06:13:01;6.95;;;3.63;;
78591;SDS011;67889;48.352;11.392;2023-02-28T06:15:27;5.57;;;3.53;;
78591;SDS011;67889;48.352;11.392;2023-02-28T06:17:53;6.68;;;3.80;;
78591;SDS011;67889;48.352;11.392;2023-02-28T06:20:33;4.55;;;2.85;;
78591;SDS011;67889;48.352;11.392;2023-02-28T06:22:59;3.78;;;2.17;;
78591;SDS011;67889;48.352;11.392;2023-02-28T06:25:27;8.93;;;3.20;;
78591;SDS011;67889;48.352;11.392;2023-02-28T06:27:53;5.60;;;3.17;;
78591;SDS011;67889;48.352;11.392;2023-02-28T06:30:19;4.93;;;2.65;;
78591;SDS011;67889;48.352;11.392;2023-02-28T06:32:49;4.63;;;3.35;;
78591;SDS011;67889;48.352;11.392;2023-02-28T06:35:14;7.67;;;2.67;;
78591;SDS011;67889;48.352;11.392;2023-02-28T06:37:40;4.30;;;3.25;;
78591;SDS011;67889;48.352;11.392;2023-02-28T06:40:05;5.07;;;2.42;;
78591;SDS011;67889;48.352;11.392;2023-02-28T06:42:31;6.88;;;3.92;;
78591;SDS011;67889;48.352;11.392;2023-02-28T06:44:57;8.52;;;2.67;;
78591;SDS011;67889;48.352;11.392;2023-02-28T06:47:23;3.15;;;2.47;;
78591;SDS011;67889;48.352;11.392;2023-02-28T06:50:00;5.82;;;3.20;;
78591;SDS011;67889;48.352;11.392;2023-02-28T06:52:26;2.97;;;2.50;;
78591;SDS011;67889;48.352;11.392;2023-02-28T06:54:51;5.13;;;3.60;;
78591;SDS011;67889;48.352;11.392;2023-02-28T06:57:24;4.75;;;2.58;;
78591;SDS011;67889;48.352;11.392;2023-02-28T06:59:55;6.63;;;2.67;;
78591;SDS011;67889;48.352;11.392;2023-02-28T07:02:21;4.72;;;2.75;;
78591;SDS011;67889;48.352;11.392;2023-02-28T07:04:47;5.97;;;3.33;;
78591;SDS011;67889;48.352;11.392;2023-02-28T07:07:12;4.50;;;2.38;;
78591;SDS011;67889;48.352;11.392;2023-02-28T07:09:37;5.80;;;2.93;;
78591;SDS011;67889;48.352;11.392;2023-02-28T07:12:12;3.17;;;2.37;;
78591;SDS011;67889;48.352;11.392;2023-02-28T07:14:37;5.10;;;2.58;;
78591;SDS011;67889;48.352;11.392;2023-02-28T07:17:03;7.20;;;3.10;;
78591;SDS011;67889;48.352;11.392;2023-02-28T07:19:28;5.30;;;3.15;;
78591;SDS011;67889;48.352;11.392;2023-02-28T07:21:53;5.30;;;3.75;;
78591;SDS011;67889;48.352;11.392;2023-02-28T07:24:19;5.33;;;2.60;;
78591;SDS011;67889;48.352;11.392;2023-02-28T07:26:44;4.07;;;2.63;;
78591;SDS011;67889;48.352;11.392;2023-02-28T07:29:09;6.07;;;4.00;;
78591;SDS011;67889;48.352;11.392;2023-02-28T07:31:35;8.50;;;4.00;;
78591;SDS011;67889;48.352;11.392;2023-02-28T07:34:00;5.82;;;3.60;;
78591;SDS011;67889;48.352;11.392;2023-02-28T07:36:25;7.13;;;3.50;;
78591;SDS011;67889;48.352;11.392;2023-02-28T07:38:51;4.57;;;2.78;;
78591;SDS011;67889;48.352;11.392;2023-02-28T07:41:17;5.43;;;2.77;;
78591;SDS011;67889;48.352;11.392;2023-02-28T07:43:44;5.45;;;3.90;;
78591;SDS011;67889;48.352;11.392;2023-02-28T07:46:10;9.95;;;4.05;;
78591;SDS011;67889;48.352;11.392;2023-02-28T07:51:03;6.28;;;2.97;;
78591;SDS011;67889;48.352;11.392;2023-02-28T07:53:28;7.18;;;3.30;;
78591;SDS011;67889;48.352;11.392;2023-02-28T07:55:55;7.22;;;3.85;;
78591;SDS011;67889;48.352;11.392;2023-02-28T07:58:21;7.15;;;3.92;;
78591;SDS011;67889;48.352;11.392;2023-02-28T08:00:47;7.60;;;3.07;;
78591;SDS011;67889;48.352;11.392;2023-02-28T08:03:12;6.47;;;3.67;;
78591;SDS011;67889;48.352;11.392;2023-02-28T08:05:38;6.38;;;4.15;;
78591;SDS011;67889;48.352;11.392;2023-02-28T08:08:07;6.60;;;3.50;;
78591;SDS011;67889;48.352;11.392;2023-02-28T08:10:32;8.70;;;3.78;;
78591;SDS011;67889;48.352;11.392;2023-02-28T08:12:58;8.63;;;3.22;;
78591;SDS011;67889;48.352;11.392;2023-02-28T08:15:23;3.00;;;2.47;;
78591;SDS011;67889;48.352;11.392;2023-02-28T08:17:48;4.70;;;2.87;;
78591;SDS011;67889;48.352;11.392;2023-02-28T08:20:14;5.77;;;4.00;;
78591;SDS011;67889;48.352;11.392;2023-02-28T08:22:39;8.07;;;4.73;;
78591;SDS011;67889;48.352;11.392;2023-02-28T08:25:04;5.23;;;3.10;;
78591;SDS011;67889;48.352;11.392;2023-02-28T08:27:32;6.13;;;3.75;;
78591;SDS011;67889;48.352;11.392;2023-02-28T08:29:57;11.23;;;4.03;;
78591;SDS011;67889;48.352;11.392;2023-02-28T08:32:34;5.00;;;3.07;;
78591;SDS011;67889;48.352;11.392;2023-02-28T08:35:00;6.03;;;3.35;;
78591;SDS011;67889;48.352;11.392;2023-02-28T08:37:25;5.50;;;2.78;;
78591;SDS011;67889;48.352;11.392;2023-02-28T08:39:50;6.67;;;2.87;;
78591;SDS011;67889;48.352;11.392;2023-02-28T08:42:16;5.70;;;2.95;;
78591;SDS011;67889;48.352;11.392;2023-02-28T08:44:41;8.17;;;3.63;;
78591;SDS011;67889;48.352;11.392;2023-02-28T08:47:06;10.30;;;4.40;;
78591;SDS011;67889;48.352;11.392;2023-02-28T08:49:32;7.87;;;4.80;;
78591;SDS011;67889;48.352;11.392;2023-02-28T08:51:57;8.50;;;4.63;;
78591;SDS011;67889;48.352;11.392;2023-02-28T08:54:23;7.73;;;3.70;;
78591;SDS011;67889;48.352;11.392;2023-02-28T08:56:48;6.38;;;4.50;;
78591;SDS011;67889;48.352;11.392;2023-02-28T08:59:14;5.93;;;4.27;;
78591;SDS011;67889;48.352;11.392;2023-02-28T09:01:39;8.90;;;4.57;;
78591;SDS011;67889;48.352;11.392;2023-02-28T09:04:06;7.63;;;4.60;;
78591;SDS011;67889;48.352;11.392;2023-02-28T09:06:33;9.85;;;4.55;;
78591;SDS011;67889;48.352;11.392;2023-02-28T09:08:59;10.40;;;5.05;;
78591;SDS011;67889;48.352;11.392;2023-02-28T09:11:25;9.45;;;5.20;;
78591;SDS011;67889;48.352;11.392;2023-02-28T09:13:51;9.63;;;4.15;;
78591;SDS011;67889;48.352;11.392;2023-02-28T09:16:16;10.43;;;4.57;;
78591;SDS011;67889;48.352;11.392;2023-02-28T09:18:43;14.02;;;5.03;;
78591;SDS011;67889;48.352;11.392;2023-02-28T09:21:14;8.25;;;4.25;;
78591;SDS011;67889;48.352;11.392;2023-02-28T09:23:41;8.90;;;4.60;;
78591;SDS011;67889;48.352;11.392;2023-02-28T09:26:12;10.43;;;4.88;;
78591;SDS011;67889;48.352;11.392;2023-02-28T09:28:49;7.25;;;4.13;;
78591;SDS011;67889;48.352;11.392;2023-02-28T09:31:16;8.27;;;4.72;;
78591;SDS011;67889;48.352;11.392;2023-02-28T09:33:48;8.57;;;4.18;;
78591;SDS011;67889;48.352;11.392;2023-02-28T09:36:14;6.32;;;4.20;;
78591;SDS011;67889;48.352;11.392;2023-02-28T09:38:39;6.10;;;4.00;;
78591;SDS011;67889;48.352;11.392;2023-02-28T09:41:10;8.77;;;5.00;;
78591;SDS011;67889;48.352;11.392;2023-02-28T09:46:44;6.28;;;3.80;;
78591;SDS011;67889;48.352;11.392;2023-02-28T09:49:17;5.30;;;3.40;;
78591;SDS011;67889;48.352;11.392;2023-02-28T09:51:58;8.40;;;4.32;;
78591;SDS011;67889;48.352;11.392;2023-02-28T09:54:28;6.88;;;3.80;;
78591;SDS011;67889;48.352;11.392;2023-02-28T10:02:16;8.82;;;4.53;;
78591;SDS011;67889;48.352;11.392;2023-02-28T10:05:16;6.57;;;3.53;;
78591;SDS011;67889;48.352;11.392;2023-02-28T10:10:31;3.25;;;2.45;;
78591;SDS011;67889;48.352;11.392;2023-02-28T10:12:58;6.75;;;4.55;;
78591;SDS011;67889;48.352;11.392;2023-02-28T10:15:27;8.18;;;4.25;;
78591;SDS011;67889;48.352;11.392;2023-02-28T10:17:57;9.35;;;4.68;;
78591;SDS011;67889;48.352;11.392;2023-02-28T10:20:27;7.10;;;4.25;;
78591;SDS011;67889;48.352;11.392;2023-02-28T10:25:26;6.85;;;4.05;;
78591;SDS011;67889;48.352;11.392;2023-02-28T10:27:53;7.40;;;4.25;;
78591;SDS011;67889;48.352;11.392;2023-02-28T10:30:21;7.40;;;4.10;;
78591;SDS011;67889;48.352;11.392;2023-02-28T10:32:50;8.13;;;4.33;;
78591;SDS011;67889;48.352;11.392;2023-02-28T10:35:22;9.68;;;4.32;;
78591;SDS011;67889;48.352;11.392;2023-02-28T10:37:50;6.55;;;4.63;;
78591;SDS011;67889;48.352;11.392;2023-02-28T10:42:56;11.90;;;4.93;;
78591;SDS011;67889;48.352;11.392;2023-02-28T10:45:23;8.27;;;5.28;;
78591;SDS011;67889;48.352;11.392;2023-02-28T10:47:56;7.47;;;4.55;;
78591;SDS011;67889;48.352;11.392;2023-02-28T10:50:28;10.02;;;5.03;;
78591;SDS011;67889;48.352;11.392;2023-02-28T10:58:29;6.40;;;4.57;;
78591;SDS011;67889;48.352;11.392;2023-02-28T11:00:56;7.53;;;4.30;;
78591;SDS011;67889;48.352;11.392;2023-02-28T11:03:34;5.80;;;4.30;;
78591;SDS011;67889;48.352;11.392;2023-02-28T11:06:14;6.30;;;3.53;;
78591;SDS011;67889;48.352;11.392;2023-02-28T11:08:46;8.98;;;4.85;;
78591;SDS011;67889;48.352;11.392;2023-02-28T11:11:14;8.52;;;4.45;;
78591;SDS011;67889;48.352;11.392;2023-02-28T11:13:41;9.90;;;4.30;;
78591;SDS011;67889;48.352;11.392;2023-02-28T11:16:09;9.65;;;4.75;;
78591;SDS011;67889;48.352;11.392;2023-02-28T11:18:57;9.00;;;5.50;;
78591;SDS011;67889;48.352;11.392;2023-02-28T11:26:50;7.28;;;4.68;;
78591;SDS011;67889;48.352;11.392;2023-02-28T11:29:20;8.73;;;5.47;;
78591;SDS011;67889;48.352;11.392;2023-02-28T11:34:34;6.47;;;4.47;;
78591;SDS011;67889;48.352;11.392;2023-02-28T11:37:01;9.95;;;5.55;;
78591;SDS011;67889;48.352;11.392;2023-02-28T11:39:30;5.90;;;3.45;;
78591;SDS011;67889;48.352;11.392;2023-02-28T11:52:52;8.35;;;5.25;;
78591;SDS011;67889;48.352;11.392;2023-02-28T11:55:46;6.72;;;4.90;;
78591;SDS011;67889;48.352;11.392;2023-02-28T12:00:58;6.65;;;5.53;;
78591;SDS011;67889;48.352;11.392;2023-02-28T12:03:28;7.55;;;4.95;;
78591;SDS011;67889;48.352;11.392;2023-02-28T12:19:46;9.23;;;4.55;;
78591;SDS011;67889;48.352;11.392;2023-02-28T12:22:42;6.97;;;4.85;;
78591;SDS011;67889;48.352;11.392;2023-02-28T12:28:01;9.52;;;5.50;;
78591;SDS011;67889;48.352;11.392;2023-02-28T12:30:34;7.35;;;6.10;;
78591;SDS011;67889;48.352;11.392;2023-02-28T12:33:08;8.30;;;4.97;;
78591;SDS011;67889;48.352;11.392;2023-02-28T12:35:38;6.60;;;4.47;;
78591;SDS011;67889;48.352;11.392;2023-02-28T12:38:05;4.03;;;3.38;;
78591;SDS011;67889;48.352;11.392;2023-02-28T12:40:42;8.30;;;5.00;;
78591;SDS011;67889;48.352;11.392;2023-02-28T12:43:12;6.45;;;5.53;;
78591;SDS011;67889;48.352;11.392;2023-02-28T12:45:46;6.63;;;4.80;;
78591;SDS011;67889;48.352;11.392;2023-02-28T12:48:19;9.57;;;5.47;;
78591;SDS011;67889;48.352;11.392;2023-02-28T12:50:50;6.82;;;4.97;;
78591;SDS011;67889;48.352;11.392;2023-02-28T12:56:00;10.68;;;5.78;;
78591;SDS011;67889;48.352;11.392;2023-02-28T13:09:31;10.25;;;5.13;;
78591;SDS011;67889;48.352;11.392;2023-02-28T13:11:57;8.20;;;4.55;;
78591;SDS011;67889;48.352;11.392;2023-02-28T13:16:55;8.15;;;5.30;;
78591;SDS011;67889;48.352;11.392;2023-02-28T13:19:25;8.60;;;5.55;;
78591;SDS011;67889;48.352;11.392;2023-02-28T13:21:52;7.85;;;4.82;;
78591;SDS011;67889;48.352;11.392;2023-02-28T13:29:30;6.73;;;4.43;;
78591;SDS011;67889;48.352;11.392;2023-02-28T13:34:27;8.98;;;5.10;;
78591;SDS011;67889;48.352;11.392;2023-02-28T13:37:20;8.23;;;4.65;;
78591;SDS011;67889;48.352;11.392;2023-02-28T13:39:50;8.52;;;4.97;;
78591;SDS011;67889;48.352;11.392;2023-02-28T13:47:28;8.00;;;4.20;;
78591;SDS011;67889;48.352;11.392;2023-02-28T13:55:53;6.15;;;3.88;;
78591;SDS011;67889;48.352;11.392;2023-02-28T13:58:41;9.15;;;4.68;;
78591;SDS011;67889;48.352;11.392;2023-02-28T14:06:30;8.43;;;4.88;;
78591;SDS011;67889;48.352;11.392;2023-02-28T14:11:41;6.97;;;4.68;;
78591;SDS011;67889;48.352;11.392;2023-02-28T14:14:09;9.00;;;5.00;;
78591;SDS011;67889;48.352;11.392;2023-02-28T14:16:54;9.48;;;4.75;;
78591;SDS011;67889;48.352;11.392;2023-02-28T14:36:01;11.68;;;4.57;;
78591;SDS011;67889;48.352;11.392;2023-02-28T14:38:47;9.20;;;5.22;;
78591;SDS011;67889;48.352;11.392;2023-02-28T14:41:16;9.45;;;5.55;;
78591;SDS011;67889;48.352;11.392;2023-02-28T14:43:51;16.55;;;5.38;;
78591;SDS011;67889;48.352;11.392;2023-02-28T14:48:45;8.43;;;4.82;;
78591;SDS011;67889;48.352;11.392;2023-02-28T14:51:13;11.38;;;5.05;;
78591;SDS011;67889;48.352;11.392;2023-02-28T14:53:44;8.65;;;4.25;;
78591;SDS011;67889;48.352;11.392;2023-02-28T14:56:24;7.82;;;4.40;;
78591;SDS011;67889;48.352;11.392;2023-02-28T14:58:53;8.05;;;4.88;;
78591;SDS011;67889;48.352;11.392;2023-02-28T15:01:33;8.20;;;4.57;;
78591;SDS011;67889;48.352;11.392;2023-02-28T15:04:05;9.77;;;5.18;;
78591;SDS011;67889;48.352;11.392;2023-02-28T15:06:31;9.82;;;5.25;;
78591;SDS011;67889;48.352;11.392;2023-02-28T15:09:08;7.20;;;4.60;;
78591;SDS011;67889;48.352;11.392;2023-02-28T15:11:35;10.68;;;4.65;;
78591;SDS011;67889;48.352;11.392;2023-02-28T15:14:02;7.35;;;4.65;;
78591;SDS011;67889;48.352;11.392;2023-02-28T15:16:30;8.27;;;4.82;;
78591;SDS011;67889;48.352;11.392;2023-02-28T15:21:27;9.02;;;4.57;;
78591;SDS011;67889;48.352;11.392;2023-02-28T15:26:26;8.20;;;4.30;;
78591;SDS011;67889;48.352;11.392;2023-02-28T15:28:59;7.22;;;4.75;;
78591;SDS011;67889;48.352;11.392;2023-02-28T15:31:32;8.85;;;4.85;;
78591;SDS011;67889;48.352;11.392;2023-02-28T15:34:03;8.85;;;4.35;;
78591;SDS011;67889;48.352;11.392;2023-02-28T15:36:30;9.15;;;5.50;;
78591;SDS011;67889;48.352;11.392;2023-02-28T15:38:58;11.00;;;4.82;;
78591;SDS011;67889;48.352;11.392;2023-02-28T15:41:26;9.80;;;4.93;;
78591;SDS011;67889;48.352;11.392;2023-02-28T15:47:01;8.90;;;4.80;;
78591;SDS011;67889;48.352;11.392;2023-02-28T15:49:35;8.88;;;5.28;;
78591;SDS011;67889;48.352;11.392;2023-02-28T15:52:12;6.07;;;4.10;;
78591;SDS011;67889;48.352;11.392;2023-02-28T15:54:40;10.35;;;4.80;;
78591;SDS011;67889;48.352;11.392;2023-02-28T15:57:07;7.30;;;4.50;;
78591;SDS011;67889;48.352;11.392;2023-02-28T15:59:42;10.32;;;4.55;;
78591;SDS011;67889;48.352;11.392;2023-02-28T16:02:16;10.13;;;4.28;;
78591;SDS011;67889;48.352;11.392;2023-02-28T16:04:59;9.82;;;4.60;;
78591;SDS011;67889;48.352;11.392;2023-02-28T16:07:27;7.30;;;4.22;;
78591;SDS011;67889;48.352;11.392;2023-02-28T16:09:53;11.55;;;5.45;;
78591;SDS011;67889;48.352;11.392;2023-02-28T16:12:20;8.23;;;4.32;;
78591;SDS011;67889;48.352;11.392;2023-02-28T16:14:51;8.25;;;3.92;;
78591;SDS011;67889;48.352;11.392;2023-02-28T16:17:25;8.73;;;5.07;;
78591;SDS011;67889;48.352;11.392;2023-02-28T16:19:53;8.73;;;4.60;;
78591;SDS011;67889;48.352;11.392;2023-02-28T16:22:19;8.52;;;4.70;;
78591;SDS011;67889;48.352;11.392;2023-02-28T16:24:45;10.05;;;5.03;;
78591;SDS011;67889;48.352;11.392;2023-02-28T16:27:15;11.27;;;5.57;;
78591;SDS011;67889;48.352;11.392;2023-02-28T16:29:43;8.68;;;5.38;;
78591;SDS011;67889;48.352;11.392;2023-02-28T16:32:10;8.88;;;4.70;;
78591;SDS011;67889;48.352;11.392;2023-02-28T16:34:37;8.48;;;4.90;;
78591;SDS011;67889;48.352;11.392;2023-02-28T16:37:03;7.67;;;4.23;;
78591;SDS011;67889;48.352;11.392;2023-02-28T16:39:34;7.05;;;4.63;;
78591;SDS011;67889;48.352;11.392;2023-02-28T16:42:00;11.10;;;5.30;;
78591;SDS011;67889;48.352;11.392;2023-02-28T16:44:29;9.63;;;5.37;;
78591;SDS011;67889;48.352;11.392;2023-02-28T16:46:56;11.32;;;5.53;;
78591;SDS011;67889;48.352;11.392;2023-02-28T16:49:24;8.15;;;4.18;;
78591;SDS011;67889;48.352;11.392;2023-02-28T16:51:50;10.57;;;5.10;;
78591;SDS011;67889;48.352;11.392;2023-02-28T16:54:15;6.97;;;4.70;;
78591;SDS011;67889;48.352;11.392;2023-02-28T16:56:42;9.13;;;5.27;;
78591;SDS011;67889;48.352;11.392;2023-02-28T16:59:10;10.63;;;4.75;;
78591;SDS011;67889;48.352;11.392;2023-02-28T17:01:36;9.95;;;3.88;;
78591;SDS011;67889;48.352;11.392;2023-02-28T17:04:01;8.90;;;4.80;;
78591;SDS011;67889;48.352;11.392;2023-02-28T17:06:27;7.65;;;4.30;;
78591;SDS011;67889;48.352;11.392;2023-02-28T17:08:54;8.65;;;3.55;;
78591;SDS011;67889;48.352;11.392;2023-02-28T17:11:19;9.57;;;5.43;;
78591;SDS011;67889;48.352;11.392;2023-02-28T17:13:46;8.55;;;4.35;;
78591;SDS011;67889;48.352;11.392;2023-02-28T17:16:17;11.30;;;5.38;;
78591;SDS011;67889;48.352;11.392;2023-02-28T17:18:47;6.22;;;4.00;;
78591;SDS011;67889;48.352;11.392;2023-02-28T17:21:15;9.35;;;5.20;;
78591;SDS011;67889;48.352;11.392;2023-02-28T17:23:41;16.27;;;4.72;;
78591;SDS011;67889;48.352;11.392;2023-02-28T17:26:09;8.60;;;5.03;;
78591;SDS011;67889;48.352;11.392;2023-02-28T17:28:37;8.07;;;4.25;;
78591;SDS011;67889;48.352;11.392;2023-02-28T17:31:03;10.67;;;5.80;;
78591;SDS011;67889;48.352;11.392;2023-02-28T17:33:28;10.77;;;4.65;;
78591;SDS011;67889;48.352;11.392;2023-02-28T17:35:53;11.07;;;4.97;;
78591;SDS011;67889;48.352;11.392;2023-02-28T17:38:19;10.83;;;4.87;;